sensor_id;sensor_type;location;lat;lon;timestamp;temperature;humidity
19906;DHT22;10115;50.906;4.438;2022-12-29T00:01:40;11.80;99.90
19906;DHT22;10115;50.906;4.438;2022-12-29T00:04:06;11.80;99.90
19906;DHT22;10115;50.906;4.438;2022-12-29T00:06:32;11.80;99.90
19906;DHT22;10115;50.906;4.438;2022-12-29T00:08:58;11.80;99.90
19906;DHT22;10115;50.906;4.438;2022-12-29T00:11:25;11.80;99.90
19906;DHT22;10115;50.906;4.438;2022-12-29T00:13:52;11.80;99.90
19906;DHT22;10115;50.906;4.438;2022-12-29T00:16:37;11.80;99.90
19906;DHT22;10115;50.906;4.438;2022-12-29T00:19:04;11.80;99.90
19906;DHT22;10115;50.906;4.438;2022-12-29T00:21:30;11.80;99.90
19906;DHT22;10115;50.906;4.438;2022-12-29T00:24:20;11.80;99.90
19906;DHT22;10115;50.906;4.438;2022-12-29T00:29:48;11.90;99.90
19906;DHT22;10115;50.906;4.438;2022-12-29T00:32:33;11.90;99.90
19906;DHT22;10115;50.906;4.438;2022-12-29T00:35:28;11.90;99.90
19906;DHT22;10115;50.906;4.438;2022-12-29T00:37:57;12.00;99.90
19906;DHT22;10115;50.906;4.438;2022-12-29T00:40:43;12.00;99.90
19906;DHT22;10115;50.906;4.438;2022-12-29T00:43:27;12.10;99.90
19906;DHT22;10115;50.906;4.438;2022-12-29T00:46:11;12.10;99.90
19906;DHT22;10115;50.906;4.438;2022-12-29T00:48:37;12.10;99.90
19906;DHT22;10115;50.906;4.438;2022-12-29T00:51:21;12.20;99.90
19906;DHT22;10115;50.906;4.438;2022-12-29T00:53:47;12.20;99.90
19906;DHT22;10115;50.906;4.438;2022-12-29T00:56:13;12.20;99.90
19906;DHT22;10115;50.906;4.438;2022-12-29T00:58:39;12.20;99.90
19906;DHT22;10115;50.906;4.438;2022-12-29T01:01:07;12.20;99.90
19906;DHT22;10115;50.906;4.438;2022-12-29T01:03:34;12.20;99.90
19906;DHT22;10115;50.906;4.438;2022-12-29T01:06:05;12.10;99.90
19906;DHT22;10115;50.906;4.438;2022-12-29T01:08:31;12.20;99.90
19906;DHT22;10115;50.906;4.438;2022-12-29T01:11:07;12.20;99.90
19906;DHT22;10115;50.906;4.438;2022-12-29T01:13:34;12.10;99.90
19906;DHT22;10115;50.906;4.438;2022-12-29T01:16:00;12.10;99.90
19906;DHT22;10115;50.906;4.438;2022-12-29T01:18:27;12.10;99.90
19906;DHT22;10115;50.906;4.438;2022-12-29T01:21:04;12.10;99.90
19906;DHT22;10115;50.906;4.438;2022-12-29T01:23:30;12.00;99.90
19906;DHT22;10115;50.906;4.438;2022-12-29T01:25:56;11.90;99.90
19906;DHT22;10115;50.906;4.438;2022-12-29T01:28:23;11.80;99.90
19906;DHT22;10115;50.906;4.438;2022-12-29T01:30:48;11.70;99.90
19906;DHT22;10115;50.906;4.438;2022-12-29T01:33:14;11.60;99.90
19906;DHT22;10115;50.906;4.438;2022-12-29T01:35:40;11.60;99.90
19906;DHT22;10115;50.906;4.438;2022-12-29T01:38:06;11.50;99.90
19906;DHT22;10115;50.906;4.438;2022-12-29T01:40:33;11.40;99.90
19906;DHT22;10115;50.906;4.438;2022-12-29T01:42:58;11.30;99.90
19906;DHT22;10115;50.906;4.438;2022-12-29T01:45:24;11.20;99.90
19906;DHT22;10115;50.906;4.438;2022-12-29T01:47:57;11.20;99.90
19906;DHT22;10115;50.906;4.438;2022-12-29T01:53:37;11.20;99.90
19906;DHT22;10115;50.906;4.438;2022-12-29T01:55:59;11.10;99.90
19906;DHT22;10115;50.906;4.438;2022-12-29T01:58:30;11.10;99.90
19906;DHT22;10115;50.906;4.438;2022-12-29T02:00:58;11.20;99.90
19906;DHT22;10115;50.906;4.438;2022-12-29T02:03:27;11.10;99.90
19906;DHT22;10115;50.906;4.438;2022-12-29T02:06:14;11.10;99.90
19906;DHT22;10115;50.906;4.438;2022-12-29T02:08:43;11.20;99.90
19906;DHT22;10115;50.906;4.438;2022-12-29T02:11:11;11.30;99.90
19906;DHT22;10115;50.906;4.438;2022-12-29T02:13:37;11.30;99.90
19906;DHT22;10115;50.906;4.438;2022-12-29T02:33:10;10.20;99.90
19906;DHT22;10115;50.906;4.438;2022-12-29T02:36:07;10.10;99.90
19906;DHT22;10115;50.906;4.438;2022-12-29T02:41:34;10.10;99.90
19906;DHT22;10115;50.906;4.438;2022-12-29T02:44:34;10.10;99.90
19906;DHT22;10115;50.906;4.438;2022-12-29T02:47:14;10.10;99.90
19906;DHT22;10115;50.906;4.438;2022-12-29T02:50:01;10.10;99.90
19906;DHT22;10115;50.906;4.438;2022-12-29T02:52:39;10.10;99.90
19906;DHT22;10115;50.906;4.438;2022-12-29T02:55:06;10.10;99.90
19906;DHT22;10115;50.906;4.438;2022-12-29T02:57:35;10.00;99.90
19906;DHT22;10115;50.906;4.438;2022-12-29T03:03:06;10.10;99.90
19906;DHT22;10115;50.906;4.438;2022-12-29T03:11:11;10.10;99.90
19906;DHT22;10115;50.906;4.438;2022-12-29T03:14:12;10.00;99.90
19906;DHT22;10115;50.906;4.438;2022-12-29T03:17:07;9.90;99.90
19906;DHT22;10115;50.906;4.438;2022-12-29T03:19:41;9.70;99.90
19906;DHT22;10115;50.906;4.438;2022-12-29T03:22:18;9.70;99.90
19906;DHT22;10115;50.906;4.438;2022-12-29T03:25:01;9.70;99.90
19906;DHT22;10115;50.906;4.438;2022-12-29T03:27:44;9.80;99.90
19906;DHT22;10115;50.906;4.438;2022-12-29T03:30:11;9.80;99.90
19906;DHT22;10115;50.906;4.438;2022-12-29T03:32:51;9.80;99.90
19906;DHT22;10115;50.906;4.438;2022-12-29T03:35:20;9.90;99.90
19906;DHT22;10115;50.906;4.438;2022-12-29T03:37:59;9.90;99.90
19906;DHT22;10115;50.906;4.438;2022-12-29T03:40:28;10.00;99.90
19906;DHT22;10115;50.906;4.438;2022-12-29T03:42:55;10.00;99.90
19906;DHT22;10115;50.906;4.438;2022-12-29T03:45:21;10.00;99.90
19906;DHT22;10115;50.906;4.438;2022-12-29T03:47:46;10.10;99.90
19906;DHT22;10115;50.906;4.438;2022-12-29T03:50:13;10.10;99.90
19906;DHT22;10115;50.906;4.438;2022-12-29T03:52:39;10.20;99.90
19906;DHT22;10115;50.906;4.438;2022-12-29T03:55:05;10.20;99.90
19906;DHT22;10115;50.906;4.438;2022-12-29T03:57:31;10.20;99.90
19906;DHT22;10115;50.906;4.438;2022-12-29T03:59:57;10.20;99.90
19906;DHT22;10115;50.906;4.438;2022-12-29T04:02:22;10.30;99.90
19906;DHT22;10115;50.906;4.438;2022-12-29T04:04:49;10.30;99.90
19906;DHT22;10115;50.906;4.438;2022-12-29T04:07:15;10.40;99.90
19906;DHT22;10115;50.906;4.438;2022-12-29T04:09:40;10.40;99.90
19906;DHT22;10115;50.906;4.438;2022-12-29T04:12:06;10.30;99.90
19906;DHT22;10115;50.906;4.438;2022-12-29T04:14:32;10.30;99.90
19906;DHT22;10115;50.906;4.438;2022-12-29T04:16:57;10.30;99.90
19906;DHT22;10115;50.906;4.438;2022-12-29T04:19:23;10.20;99.90
19906;DHT22;10115;50.906;4.438;2022-12-29T04:21:49;10.20;99.90
19906;DHT22;10115;50.906;4.438;2022-12-29T04:24:15;10.20;99.90
19906;DHT22;10115;50.906;4.438;2022-12-29T04:26:41;10.20;99.90
19906;DHT22;10115;50.906;4.438;2022-12-29T04:29:07;10.20;99.90
19906;DHT22;10115;50.906;4.438;2022-12-29T04:31:32;10.20;99.90
19906;DHT22;10115;50.906;4.438;2022-12-29T04:33:58;10.20;99.90
19906;DHT22;10115;50.906;4.438;2022-12-29T04:36:25;10.20;99.90
19906;DHT22;10115;50.906;4.438;2022-12-29T04:38:51;10.20;99.90
19906;DHT22;10115;50.906;4.438;2022-12-29T04:41:17;10.20;99.90
19906;DHT22;10115;50.906;4.438;2022-12-29T04:43:43;10.20;99.90
19906;DHT22;10115;50.906;4.438;2022-12-29T04:46:08;10.30;99.90
19906;DHT22;10115;50.906;4.438;2022-12-29T04:48:34;10.30;99.90
19906;DHT22;10115;50.906;4.438;2022-12-29T04:51:00;10.30;99.90
19906;DHT22;10115;50.906;4.438;2022-12-29T04:53:25;10.20;99.90
19906;DHT22;10115;50.906;4.438;2022-12-29T04:55:52;10.20;99.90
19906;DHT22;10115;50.906;4.438;2022-12-29T04:58:19;10.30;99.90
19906;DHT22;10115;50.906;4.438;2022-12-29T05:00:45;10.20;99.90
19906;DHT22;10115;50.906;4.438;2022-12-29T05:03:10;10.20;99.90
19906;DHT22;10115;50.906;4.438;2022-12-29T05:05:36;10.30;99.90
19906;DHT22;10115;50.906;4.438;2022-12-29T05:08:02;10.30;99.90
19906;DHT22;10115;50.906;4.438;2022-12-29T05:10:28;10.30;99.90
19906;DHT22;10115;50.906;4.438;2022-12-29T05:12:54;10.30;99.90
19906;DHT22;10115;50.906;4.438;2022-12-29T05:15:19;10.40;99.90
19906;DHT22;10115;50.906;4.438;2022-12-29T05:17:45;10.40;99.90
19906;DHT22;10115;50.906;4.438;2022-12-29T05:20:11;10.40;99.90
19906;DHT22;10115;50.906;4.438;2022-12-29T05:22:37;10.40;99.90
19906;DHT22;10115;50.906;4.438;2022-12-29T05:25:02;10.50;99.90
19906;DHT22;10115;50.906;4.438;2022-12-29T05:27:28;10.50;99.90
19906;DHT22;10115;50.906;4.438;2022-12-29T05:29:54;10.60;99.90
19906;DHT22;10115;50.906;4.438;2022-12-29T05:32:20;10.60;99.90
19906;DHT22;10115;50.906;4.438;2022-12-29T05:34:46;10.70;99.90
19906;DHT22;10115;50.906;4.438;2022-12-29T05:37:11;10.60;99.90
19906;DHT22;10115;50.906;4.438;2022-12-29T05:39:37;10.60;99.90
19906;DHT22;10115;50.906;4.438;2022-12-29T05:42:03;10.70;99.90
19906;DHT22;10115;50.906;4.438;2022-12-29T05:44:28;10.60;99.90
19906;DHT22;10115;50.906;4.438;2022-12-29T05:46:54;10.70;99.90
19906;DHT22;10115;50.906;4.438;2022-12-29T05:49:20;10.70;99.90
19906;DHT22;10115;50.906;4.438;2022-12-29T05:51:45;10.70;99.90
19906;DHT22;10115;50.906;4.438;2022-12-29T05:54:11;10.70;99.90
19906;DHT22;10115;50.906;4.438;2022-12-29T05:56:37;10.80;99.90
19906;DHT22;10115;50.906;4.438;2022-12-29T05:59:02;10.80;99.90
19906;DHT22;10115;50.906;4.438;2022-12-29T06:01:28;10.70;99.90
19906;DHT22;10115;50.906;4.438;2022-12-29T06:03:54;10.70;99.90
19906;DHT22;10115;50.906;4.438;2022-12-29T06:06:20;10.70;99.90
19906;DHT22;10115;50.906;4.438;2022-12-29T06:08:45;10.70;99.90
19906;DHT22;10115;50.906;4.438;2022-12-29T06:11:11;10.70;99.90
19906;DHT22;10115;50.906;4.438;2022-12-29T06:13:37;10.60;99.90
19906;DHT22;10115;50.906;4.438;2022-12-29T06:16:03;10.60;99.90
19906;DHT22;10115;50.906;4.438;2022-12-29T06:18:28;10.60;99.90
19906;DHT22;10115;50.906;4.438;2022-12-29T06:20:58;10.50;99.90
19906;DHT22;10115;50.906;4.438;2022-12-29T06:23:24;10.50;99.90
19906;DHT22;10115;50.906;4.438;2022-12-29T06:25:49;10.60;99.90
19906;DHT22;10115;50.906;4.438;2022-12-29T06:28:15;10.60;99.90
19906;DHT22;10115;50.906;4.438;2022-12-29T06:30:44;10.60;99.90
19906;DHT22;10115;50.906;4.438;2022-12-29T06:33:11;10.50;99.90
19906;DHT22;10115;50.906;4.438;2022-12-29T06:35:36;10.50;99.90
19906;DHT22;10115;50.906;4.438;2022-12-29T06:38:02;10.40;99.90
19906;DHT22;10115;50.906;4.438;2022-12-29T06:40:28;10.60;99.90
19906;DHT22;10115;50.906;4.438;2022-12-29T06:42:54;10.60;99.90
19906;DHT22;10115;50.906;4.438;2022-12-29T06:45:19;10.70;99.90
19906;DHT22;10115;50.906;4.438;2022-12-29T06:47:45;10.70;99.90
19906;DHT22;10115;50.906;4.438;2022-12-29T06:50:11;10.80;99.90
19906;DHT22;10115;50.906;4.438;2022-12-29T06:52:36;10.70;99.90
19906;DHT22;10115;50.906;4.438;2022-12-29T06:55:02;10.80;99.90
19906;DHT22;10115;50.906;4.438;2022-12-29T06:57:28;10.80;99.90
19906;DHT22;10115;50.906;4.438;2022-12-29T06:59:54;10.80;99.90
19906;DHT22;10115;50.906;4.438;2022-12-29T07:02:23;10.70;99.90
19906;DHT22;10115;50.906;4.438;2022-12-29T07:04:51;10.70;99.90
19906;DHT22;10115;50.906;4.438;2022-12-29T07:07:18;10.90;99.90
19906;DHT22;10115;50.906;4.438;2022-12-29T07:09:44;10.80;99.90
19906;DHT22;10115;50.906;4.438;2022-12-29T07:12:10;10.80;99.90
19906;DHT22;10115;50.906;4.438;2022-12-29T07:14:35;10.80;99.90
19906;DHT22;10115;50.906;4.438;2022-12-29T07:17:02;10.80;99.90
19906;DHT22;10115;50.906;4.438;2022-12-29T07:19:31;10.70;99.90
19906;DHT22;10115;50.906;4.438;2022-12-29T07:21:56;10.80;99.90
19906;DHT22;10115;50.906;4.438;2022-12-29T07:24:22;10.80;99.90
19906;DHT22;10115;50.906;4.438;2022-12-29T07:26:48;10.80;99.90
19906;DHT22;10115;50.906;4.438;2022-12-29T07:29:13;10.80;99.90
19906;DHT22;10115;50.906;4.438;2022-12-29T07:31:39;10.90;99.90
19906;DHT22;10115;50.906;4.438;2022-12-29T07:34:05;10.80;99.90
19906;DHT22;10115;50.906;4.438;2022-12-29T07:36:30;10.80;99.90
19906;DHT22;10115;50.906;4.438;2022-12-29T07:38:56;10.80;99.90
19906;DHT22;10115;50.906;4.438;2022-12-29T07:41:22;10.80;99.90
19906;DHT22;10115;50.906;4.438;2022-12-29T07:43:47;10.80;99.90
19906;DHT22;10115;50.906;4.438;2022-12-29T07:46:14;10.80;99.90
19906;DHT22;10115;50.906;4.438;2022-12-29T07:48:40;10.80;99.90
19906;DHT22;10115;50.906;4.438;2022-12-29T07:51:06;10.80;99.90
19906;DHT22;10115;50.906;4.438;2022-12-29T07:53:32;10.80;99.90
19906;DHT22;10115;50.906;4.438;2022-12-29T07:55:57;10.80;99.90
19906;DHT22;10115;50.906;4.438;2022-12-29T07:58:23;10.80;99.90
19906;DHT22;10115;50.906;4.438;2022-12-29T08:00:56;10.80;99.90
19906;DHT22;10115;50.906;4.438;2022-12-29T08:03:22;10.80;99.90
19906;DHT22;10115;50.906;4.438;2022-12-29T08:05:48;10.80;99.90
19906;DHT22;10115;50.906;4.438;2022-12-29T08:08:14;10.90;99.90
19906;DHT22;10115;50.906;4.438;2022-12-29T08:10:40;10.80;99.90
19906;DHT22;10115;50.906;4.438;2022-12-29T08:13:05;10.80;99.90
19906;DHT22;10115;50.906;4.438;2022-12-29T08:15:31;10.90;99.90
19906;DHT22;10115;50.906;4.438;2022-12-29T08:17:57;10.80;99.90
19906;DHT22;10115;50.906;4.438;2022-12-29T08:20:22;10.80;99.90
19906;DHT22;10115;50.906;4.438;2022-12-29T08:22:48;10.80;99.90
19906;DHT22;10115;50.906;4.438;2022-12-29T08:25:14;10.80;99.90
19906;DHT22;10115;50.906;4.438;2022-12-29T08:27:40;10.80;99.90
19906;DHT22;10115;50.906;4.438;2022-12-29T08:30:06;10.80;99.90
19906;DHT22;10115;50.906;4.438;2022-12-29T08:32:32;10.80;99.90
19906;DHT22;10115;50.906;4.438;2022-12-29T08:34:58;10.80;99.90
19906;DHT22;10115;50.906;4.438;2022-12-29T08:37:23;10.80;99.90
19906;DHT22;10115;50.906;4.438;2022-12-29T08:39:49;10.80;99.90
19906;DHT22;10115;50.906;4.438;2022-12-29T08:42:15;10.80;99.90
19906;DHT22;10115;50.906;4.438;2022-12-29T08:44:41;10.80;99.90
19906;DHT22;10115;50.906;4.438;2022-12-29T08:47:08;10.80;99.90
19906;DHT22;10115;50.906;4.438;2022-12-29T08:49:34;10.80;99.90
19906;DHT22;10115;50.906;4.438;2022-12-29T08:51:59;10.80;99.90
19906;DHT22;10115;50.906;4.438;2022-12-29T08:54:25;10.80;99.90
19906;DHT22;10115;50.906;4.438;2022-12-29T08:56:51;10.80;99.90
19906;DHT22;10115;50.906;4.438;2022-12-29T08:59:17;10.70;99.90
19906;DHT22;10115;50.906;4.438;2022-12-29T09:01:42;10.60;99.90
19906;DHT22;10115;50.906;4.438;2022-12-29T09:04:08;10.60;99.90
19906;DHT22;10115;50.906;4.438;2022-12-29T09:06:34;10.70;99.90
19906;DHT22;10115;50.906;4.438;2022-12-29T09:09:01;10.60;99.90
19906;DHT22;10115;50.906;4.438;2022-12-29T09:11:27;10.60;99.90
19906;DHT22;10115;50.906;4.438;2022-12-29T09:13:53;10.60;99.90
19906;DHT22;10115;50.906;4.438;2022-12-29T09:16:22;10.60;99.90
19906;DHT22;10115;50.906;4.438;2022-12-29T09:18:48;10.40;99.90
19906;DHT22;10115;50.906;4.438;2022-12-29T09:21:14;10.30;99.90
19906;DHT22;10115;50.906;4.438;2022-12-29T09:23:40;10.20;99.90
19906;DHT22;10115;50.906;4.438;2022-12-29T09:26:07;10.20;99.90
19906;DHT22;10115;50.906;4.438;2022-12-29T09:28:33;10.20;99.90
19906;DHT22;10115;50.906;4.438;2022-12-29T09:30:59;10.20;99.90
19906;DHT22;10115;50.906;4.438;2022-12-29T09:33:25;10.30;99.90
19906;DHT22;10115;50.906;4.438;2022-12-29T09:36:00;10.30;99.90
19906;DHT22;10115;50.906;4.438;2022-12-29T09:38:27;10.10;99.90
19906;DHT22;10115;50.906;4.438;2022-12-29T09:40:56;9.90;99.90
19906;DHT22;10115;50.906;4.438;2022-12-29T09:46:46;9.90;99.90
19906;DHT22;10115;50.906;4.438;2022-12-29T09:51:53;9.90;99.90
19906;DHT22;10115;50.906;4.438;2022-12-29T09:54:52;9.80;99.90
19906;DHT22;10115;50.906;4.438;2022-12-29T09:57:29;9.80;99.90
19906;DHT22;10115;50.906;4.438;2022-12-29T10:00:17;9.90;99.90
19906;DHT22;10115;50.906;4.438;2022-12-29T10:03:46;10.00;99.90
19906;DHT22;10115;50.906;4.438;2022-12-29T10:05:48;10.20;99.90
19906;DHT22;10115;50.906;4.438;2022-12-29T10:08:39;10.40;99.90
19906;DHT22;10115;50.906;4.438;2022-12-29T10:24:47;10.50;99.90
19906;DHT22;10115;50.906;4.438;2022-12-29T10:27:15;10.50;99.90
19906;DHT22;10115;50.906;4.438;2022-12-29T10:29:52;10.60;99.90
19906;DHT22;10115;50.906;4.438;2022-12-29T10:32:52;10.60;99.90
19906;DHT22;10115;50.906;4.438;2022-12-29T10:35:39;10.60;99.90
19906;DHT22;10115;50.906;4.438;2022-12-29T10:40:52;10.70;99.90
19906;DHT22;10115;50.906;4.438;2022-12-29T10:43:28;10.70;99.90
19906;DHT22;10115;50.906;4.438;2022-12-29T10:46:02;10.80;99.90
19906;DHT22;10115;50.906;4.438;2022-12-29T10:48:34;10.80;99.90
19906;DHT22;10115;50.906;4.438;2022-12-29T10:51:02;10.80;99.90
19906;DHT22;10115;50.906;4.438;2022-12-29T10:56:14;11.10;99.90
19906;DHT22;10115;50.906;4.438;2022-12-29T10:58:41;11.00;99.90
19906;DHT22;10115;50.906;4.438;2022-12-29T11:01:09;11.00;99.90
19906;DHT22;10115;50.906;4.438;2022-12-29T11:06:36;11.10;99.90
19906;DHT22;10115;50.906;4.438;2022-12-29T11:09:13;11.20;99.90
19906;DHT22;10115;50.906;4.438;2022-12-29T11:11:40;11.10;99.90
19906;DHT22;10115;50.906;4.438;2022-12-29T11:14:17;11.10;99.90
19906;DHT22;10115;50.906;4.438;2022-12-29T11:16:43;11.30;99.90
19906;DHT22;10115;50.906;4.438;2022-12-29T11:19:21;11.10;99.90
19906;DHT22;10115;50.906;4.438;2022-12-29T11:21:47;10.90;99.90
19906;DHT22;10115;50.906;4.438;2022-12-29T11:24:25;10.90;99.90
19906;DHT22;10115;50.906;4.438;2022-12-29T11:26:53;11.00;99.90
19906;DHT22;10115;50.906;4.438;2022-12-29T11:29:40;11.00;99.90
19906;DHT22;10115;50.906;4.438;2022-12-29T11:32:18;11.10;99.90
19906;DHT22;10115;50.906;4.438;2022-12-29T11:34:45;11.20;99.90
19906;DHT22;10115;50.906;4.438;2022-12-29T11:37:19;11.20;99.90
19906;DHT22;10115;50.906;4.438;2022-12-29T11:40:26;11.10;99.90
19906;DHT22;10115;50.906;4.438;2022-12-29T11:42:54;11.00;99.90
19906;DHT22;10115;50.906;4.438;2022-12-29T11:45:25;10.70;99.90
19906;DHT22;10115;50.906;4.438;2022-12-29T11:48:06;10.50;99.90
19906;DHT22;10115;50.906;4.438;2022-12-29T11:50:36;10.40;99.90
19906;DHT22;10115;50.906;4.438;2022-12-29T11:53:21;10.40;99.90
19906;DHT22;10115;50.906;4.438;2022-12-29T11:56:01;10.20;99.90
19906;DHT22;10115;50.906;4.438;2022-12-29T11:58:33;10.20;99.90
19906;DHT22;10115;50.906;4.438;2022-12-29T12:01:06;10.10;99.90
19906;DHT22;10115;50.906;4.438;2022-12-29T12:03:36;9.90;99.90
19906;DHT22;10115;50.906;4.438;2022-12-29T12:06:03;9.90;99.90
19906;DHT22;10115;50.906;4.438;2022-12-29T12:08:55;10.00;99.90
19906;DHT22;10115;50.906;4.438;2022-12-29T12:11:22;10.20;99.90
19906;DHT22;10115;50.906;4.438;2022-12-29T12:14:18;10.30;99.90
19906;DHT22;10115;50.906;4.438;2022-12-29T12:16:52;10.30;99.90
19906;DHT22;10115;50.906;4.438;2022-12-29T12:22:03;10.30;99.90
19906;DHT22;10115;50.906;4.438;2022-12-29T12:24:48;10.40;99.90
19906;DHT22;10115;50.906;4.438;2022-12-29T12:30:18;10.30;99.90
19906;DHT22;10115;50.906;4.438;2022-12-29T12:33:04;10.20;99.90
19906;DHT22;10115;50.906;4.438;2022-12-29T12:44:19;10.30;99.90
19906;DHT22;10115;50.906;4.438;2022-12-29T13:00:17;10.50;99.90
19906;DHT22;10115;50.906;4.438;2022-12-29T13:11:13;10.20;99.90
19906;DHT22;10115;50.906;4.438;2022-12-29T13:13:50;10.20;99.90
19906;DHT22;10115;50.906;4.438;2022-12-29T13:19:11;10.20;99.90
19906;DHT22;10115;50.906;4.438;2022-12-29T13:30:10;10.50;99.90
19906;DHT22;10115;50.906;4.438;2022-12-29T13:32:59;10.50;99.90
19906;DHT22;10115;50.906;4.438;2022-12-29T13:35:55;10.50;99.90
19906;DHT22;10115;50.906;4.438;2022-12-29T13:38:42;10.60;99.90
19906;DHT22;10115;50.906;4.438;2022-12-29T13:41:13;10.60;99.90
19906;DHT22;10115;50.906;4.438;2022-12-29T13:43:42;10.50;99.90
19906;DHT22;10115;50.906;4.438;2022-12-29T13:46:31;10.40;99.90
19906;DHT22;10115;50.906;4.438;2022-12-29T13:49:06;10.40;99.90
19906;DHT22;10115;50.906;4.438;2022-12-29T13:51:34;10.40;99.90
19906;DHT22;10115;50.906;4.438;2022-12-29T14:00:22;10.10;99.90
19906;DHT22;10115;50.906;4.438;2022-12-29T14:03:18;10.10;99.90
19906;DHT22;10115;50.906;4.438;2022-12-29T14:06:11;10.20;99.90
19906;DHT22;10115;50.906;4.438;2022-12-29T14:08:37;10.20;99.90
19906;DHT22;10115;50.906;4.438;2022-12-29T14:11:10;10.20;99.90
19906;DHT22;10115;50.906;4.438;2022-12-29T14:13:41;10.20;99.90
19906;DHT22;10115;50.906;4.438;2022-12-29T14:16:23;10.30;99.90
19906;DHT22;10115;50.906;4.438;2022-12-29T14:18:50;10.30;99.90
19906;DHT22;10115;50.906;4.438;2022-12-29T14:23:44;10.30;99.90
19906;DHT22;10115;50.906;4.438;2022-12-29T14:28:45;10.40;99.90
19906;DHT22;10115;50.906;4.438;2022-12-29T14:33:41;10.30;99.90
19906;DHT22;10115;50.906;4.438;2022-12-29T14:38:59;10.20;99.90
19906;DHT22;10115;50.906;4.438;2022-12-29T14:43:54;8.70;99.90
19906;DHT22;10115;50.906;4.438;2022-12-29T14:46:21;8.50;99.90
19906;DHT22;10115;50.906;4.438;2022-12-29T14:48:47;8.40;99.90
19906;DHT22;10115;50.906;4.438;2022-12-29T14:51:24;8.20;99.90
19906;DHT22;10115;50.906;4.438;2022-12-29T14:53:52;8.10;99.90
19906;DHT22;10115;50.906;4.438;2022-12-29T14:56:24;8.00;99.90
19906;DHT22;10115;50.906;4.438;2022-12-29T14:59:01;8.00;99.90
19906;DHT22;10115;50.906;4.438;2022-12-29T15:01:48;8.00;99.90
19906;DHT22;10115;50.906;4.438;2022-12-29T15:04:26;8.00;99.90
19906;DHT22;10115;50.906;4.438;2022-12-29T15:06:55;8.00;99.90
19906;DHT22;10115;50.906;4.438;2022-12-29T15:09:34;8.00;99.90
19906;DHT22;10115;50.906;4.438;2022-12-29T15:14:38;8.00;99.90
19906;DHT22;10115;50.906;4.438;2022-12-29T15:17:24;8.00;99.90
19906;DHT22;10115;50.906;4.438;2022-12-29T15:19:51;7.90;99.90
19906;DHT22;10115;50.906;4.438;2022-12-29T15:22:16;7.80;99.90
19906;DHT22;10115;50.906;4.438;2022-12-29T15:24:43;7.70;99.90
19906;DHT22;10115;50.906;4.438;2022-12-29T15:27:18;7.70;99.90
19906;DHT22;10115;50.906;4.438;2022-12-29T15:29:45;7.60;99.90
19906;DHT22;10115;50.906;4.438;2022-12-29T15:32:19;7.60;99.90
19906;DHT22;10115;50.906;4.438;2022-12-29T15:34:48;7.60;99.90
19906;DHT22;10115;50.906;4.438;2022-12-29T15:37:33;7.70;99.90
19906;DHT22;10115;50.906;4.438;2022-12-29T15:39:59;7.70;99.90
19906;DHT22;10115;50.906;4.438;2022-12-29T15:45:15;7.70;99.90
19906;DHT22;10115;50.906;4.438;2022-12-29T15:47:43;7.70;99.90
19906;DHT22;10115;50.906;4.438;2022-12-29T15:50:22;7.80;99.90
19906;DHT22;10115;50.906;4.438;2022-12-29T15:52:50;7.80;99.90
19906;DHT22;10115;50.906;4.438;2022-12-29T15:55:35;7.80;99.90
19906;DHT22;10115;50.906;4.438;2022-12-29T15:58:04;7.80;99.90
19906;DHT22;10115;50.906;4.438;2022-12-29T16:00:33;7.90;99.90
19906;DHT22;10115;50.906;4.438;2022-12-29T16:03:02;8.00;99.90
19906;DHT22;10115;50.906;4.438;2022-12-29T16:05:38;8.00;99.90
19906;DHT22;10115;50.906;4.438;2022-12-29T16:10:46;7.90;99.90
19906;DHT22;10115;50.906;4.438;2022-12-29T16:13:25;7.90;99.90
19906;DHT22;10115;50.906;4.438;2022-12-29T16:15:59;7.80;99.90
19906;DHT22;10115;50.906;4.438;2022-12-29T16:18:30;7.80;99.90
19906;DHT22;10115;50.906;4.438;2022-12-29T16:20:58;7.80;99.90
19906;DHT22;10115;50.906;4.438;2022-12-29T16:23:26;7.80;99.90
19906;DHT22;10115;50.906;4.438;2022-12-29T16:25:54;7.80;99.90
19906;DHT22;10115;50.906;4.438;2022-12-29T16:28:23;7.80;99.90
19906;DHT22;10115;50.906;4.438;2022-12-29T16:31:21;7.80;99.90
19906;DHT22;10115;50.906;4.438;2022-12-29T16:33:50;7.80;99.90
19906;DHT22;10115;50.906;4.438;2022-12-29T16:39:30;7.90;99.90
19906;DHT22;10115;50.906;4.438;2022-12-29T16:41:56;7.90;99.90
19906;DHT22;10115;50.906;4.438;2022-12-29T16:44:29;7.80;99.90
19906;DHT22;10115;50.906;4.438;2022-12-29T16:49:27;8.00;99.90
19906;DHT22;10115;50.906;4.438;2022-12-29T16:51:54;8.00;99.90
19906;DHT22;10115;50.906;4.438;2022-12-29T16:54:35;8.10;99.90
19906;DHT22;10115;50.906;4.438;2022-12-29T16:57:02;8.00;99.90
19906;DHT22;10115;50.906;4.438;2022-12-29T16:59:34;8.00;99.90
19906;DHT22;10115;50.906;4.438;2022-12-29T17:02:07;7.90;99.90
19906;DHT22;10115;50.906;4.438;2022-12-29T17:04:33;8.00;99.90
19906;DHT22;10115;50.906;4.438;2022-12-29T17:06:58;8.00;99.90
19906;DHT22;10115;50.906;4.438;2022-12-29T17:09:26;8.00;99.90
19906;DHT22;10115;50.906;4.438;2022-12-29T17:11:54;8.00;99.90
19906;DHT22;10115;50.906;4.438;2022-12-29T17:14:36;8.00;99.90
19906;DHT22;10115;50.906;4.438;2022-12-29T17:17:09;7.90;99.90
19906;DHT22;10115;50.906;4.438;2022-12-29T17:19:37;8.00;99.90
19906;DHT22;10115;50.906;4.438;2022-12-29T17:22:09;8.00;99.90
19906;DHT22;10115;50.906;4.438;2022-12-29T17:24:37;8.00;99.90
19906;DHT22;10115;50.906;4.438;2022-12-29T17:27:03;8.10;99.90
19906;DHT22;10115;50.906;4.438;2022-12-29T17:29:35;8.10;99.90
19906;DHT22;10115;50.906;4.438;2022-12-29T17:32:04;8.00;99.90
19906;DHT22;10115;50.906;4.438;2022-12-29T17:34:31;8.10;99.90
19906;DHT22;10115;50.906;4.438;2022-12-29T17:36:56;8.10;99.90
19906;DHT22;10115;50.906;4.438;2022-12-29T17:39:22;8.10;99.90
19906;DHT22;10115;50.906;4.438;2022-12-29T17:41:48;8.00;99.90
19906;DHT22;10115;50.906;4.438;2022-12-29T17:44:19;8.00;99.90
19906;DHT22;10115;50.906;4.438;2022-12-29T17:46:46;8.00;99.90
19906;DHT22;10115;50.906;4.438;2022-12-29T17:49:14;8.00;99.90
19906;DHT22;10115;50.906;4.438;2022-12-29T17:51:41;8.00;99.90
19906;DHT22;10115;50.906;4.438;2022-12-29T17:54:27;8.10;99.90
19906;DHT22;10115;50.906;4.438;2022-12-29T17:56:53;8.10;99.90
19906;DHT22;10115;50.906;4.438;2022-12-29T17:59:19;8.10;99.90
19906;DHT22;10115;50.906;4.438;2022-12-29T18:01:46;8.10;99.90
19906;DHT22;10115;50.906;4.438;2022-12-29T18:04:14;8.20;99.90
19906;DHT22;10115;50.906;4.438;2022-12-29T18:06:41;8.20;99.90
19906;DHT22;10115;50.906;4.438;2022-12-29T18:09:07;8.10;99.90
19906;DHT22;10115;50.906;4.438;2022-12-29T18:11:37;8.10;99.90
19906;DHT22;10115;50.906;4.438;2022-12-29T18:14:05;8.10;99.90
19906;DHT22;10115;50.906;4.438;2022-12-29T18:16:30;8.10;99.90
19906;DHT22;10115;50.906;4.438;2022-12-29T18:18:56;8.10;99.90